Time;durP1;ratioP1;P1;durP2;ratioP2;P2;SDS_P1;SDS_P2;PMS_P1;PMS_P2;Temp;Humidity;BMP_temperature;BMP_pressure;BME280_temperature;BME280_humidity;BME280_pressure;Samples;Min_cycle;Max_cycle;Signal;HPM_P1;HPM_P2
2023/08/21 00:00:07;;;;;;;;;;;24.90;99.90;;;;;;5002644;28;20026;-73
2023/08/21 00:02:33;;;;;;;0.00;0.00;;;24.90;99.90;;;;;;5004580;28;19909;-74
2023/08/21 00:04:58;;;;;;;0.10;0.10;;;24.90;99.90;;;;;;5002301;28;20119;-73
2023/08/21 00:07:24;;;;;;;;;;;24.90;99.90;;;;;;5006764;28;20465;-74
2023/08/21 00:09:50;;;;;;;0.00;0.00;;;24.90;99.90;;;;;;5002366;28;20372;-73
2023/08/21 00:12:15;;;;;;;;;;;24.80;99.90;;;;;;5006367;28;20052;-73
2023/08/21 00:14:41;;;;;;;0.00;0.00;;;24.80;99.90;;;;;;5004626;28;20353;-73
2023/08/21 00:17:07;;;;;;;;;;;24.80;99.90;;;;;;5003221;28;20105;-73
2023/08/21 00:19:34;;;;;;;0.00;0.00;;;24.70;99.90;;;;;;5004102;28;19906;-73
2023/08/21 00:22:00;;;;;;;0.10;0.10;;;24.70;99.90;;;;;;5006899;28;20113;-73
2023/08/21 00:24:26;;;;;;;;;;;24.60;99.90;;;;;;5004617;28;20037;-74
2023/08/21 00:26:51;;;;;;;0.65;0.10;;;24.60;99.90;;;;;;5004912;28;19909;-74
2023/08/21 00:29:17;;;;;;;;;;;24.50;99.90;;;;;;5008316;28;20037;-74
2023/08/21 00:31:42;;;;;;;0.17;0.03;;;24.50;99.90;;;;;;5004185;28;19909;-73
2023/08/21 00:34:08;;;;;;;;;;;24.50;99.90;;;;;;4986712;28;20045;-74
2023/08/21 00:36:35;;;;;;;0.00;0.00;;;24.50;99.90;;;;;;5010076;28;19959;-73
2023/08/21 00:39:00;;;;;;;0.05;0.03;;;24.50;99.90;;;;;;5013075;28;20029;-74
2023/08/21 00:41:26;;;;;;;;;;;24.50;99.90;;;;;;4987282;28;20036;-73
2023/08/21 00:43:52;;;;;;;0.00;0.00;;;24.50;99.90;;;;;;4996462;28;19909;-74
2023/08/21 00:46:17;;;;;;;;;;;24.50;99.90;;;;;;4989914;28;20109;-73
2023/08/21 00:48:44;;;;;;;0.00;0.00;;;24.50;99.90;;;;;;5003787;28;19909;-74
2023/08/21 00:51:11;;;;;;;0.10;0.10;;;24.50;99.90;;;;;;4985029;28;20497;-74
2023/08/21 00:53:38;;;;;;;0.00;0.00;;;24.40;99.90;;;;;;5006199;28;20026;-74
2023/08/21 00:56:04;;;;;;;0.00;0.00;;;24.30;99.90;;;;;;5001388;28;20083;-74
2023/08/21 00:58:30;;;;;;;0.17;0.17;;;24.30;99.90;;;;;;4986659;28;20026;-74
2023/08/21 01:00:55;;;;;;;;;;;24.20;99.90;;;;;;5005242;28;20048;-74
2023/08/21 01:03:21;;;;;;;0.00;0.00;;;24.10;99.90;;;;;;5005109;28;19906;-73
2023/08/21 01:05:47;;;;;;;;;;;24.10;99.90;;;;;;5003315;28;20037;-74
2023/08/21 01:08:26;;;;;;;0.00;0.00;;;24.10;99.90;;;;;;4982637;28;20370;-74
2023/08/21 01:11:39;;;;;;;0.08;0.00;;;24.20;99.90;;;;;;5002828;28;20570;-74
2023/08/21 01:14:30;;;;;;;0.03;0.03;;;24.10;99.90;;;;;;4938689;29;20030;-73
2023/08/21 01:17:00;;;;;;;0.00;0.00;;;24.10;99.90;;;;;;4942262;28;20045;-73
2023/08/21 01:19:53;;;;;;;0.00;0.00;;;24.10;99.90;;;;;;4995011;28;20018;-73
2023/08/21 01:22:20;;;;;;;0.00;0.00;;;24.10;99.90;;;;;;4999835;28;20410;-73
2023/08/21 01:24:45;;;;;;;0.00;0.00;;;24.10;99.90;;;;;;4985773;28;20032;-74
2023/08/21 01:27:13;;;;;;;;;;;24.00;99.90;;;;;;5004774;28;20105;-73
2023/08/21 01:29:39;;;;;;;0.20;0.17;;;24.00;99.90;;;;;;5003708;28;20327;-73
2023/08/21 01:32:27;;;;;;;;;;;24.00;99.90;;;;;;5003949;28;20029;-74
2023/08/21 01:34:55;;;;;;;0.00;0.00;;;23.90;99.90;;;;;;5002807;28;20337;-73
2023/08/21 01:37:21;;;;;;;0.00;0.00;;;23.90;99.90;;;;;;4997291;28;20029;-74
2023/08/21 01:39:47;;;;;;;0.00;0.00;;;23.90;99.90;;;;;;5022473;28;20366;-74
2023/08/21 01:42:12;;;;;;;;;;;23.90;99.90;;;;;;5016301;28;20029;-73
2023/08/21 01:44:38;;;;;;;0.00;0.00;;;23.90;99.90;;;;;;5003200;28;19959;-74
2023/08/21 01:47:04;;;;;;;;;;;23.90;99.90;;;;;;5004566;28;20042;-74
2023/08/21 01:49:29;;;;;;;0.00;0.00;;;23.90;99.90;;;;;;5003414;28;19909;-74
2023/08/21 01:51:55;;;;;;;;;;;23.90;99.90;;;;;;4985689;28;20088;-73
2023/08/21 01:54:21;;;;;;;0.15;0.00;;;23.80;99.90;;;;;;5003542;28;19925;-73
2023/08/21 01:56:46;;;;;;;;;;;23.90;99.90;;;;;;5005062;28;20014;-73
2023/08/21 01:59:12;;;;;;;0.00;0.00;;;23.90;99.90;;;;;;4985705;28;19909;-74
2023/08/21 02:01:37;;;;;;;;;;;23.80;99.90;;;;;;5004680;28;20376;-73
2023/08/21 02:04:03;;;;;;;0.00;0.00;;;23.80;99.90;;;;;;5002460;28;19910;-74
2023/08/21 02:06:29;;;;;;;;;;;23.70;99.90;;;;;;4985928;28;20792;-74
2023/08/21 02:08:54;;;;;;;0.00;0.00;;;23.70;99.90;;;;;;4985742;28;19992;-74
2023/08/21 02:11:20;;;;;;;;;;;23.70;99.90;;;;;;4988204;28;20038;-74
2023/08/21 02:13:45;;;;;;;0.00;0.00;;;23.70;99.90;;;;;;4997978;28;20008;-73
2023/08/21 02:16:11;;;;;;;0.00;0.00;;;23.70;99.90;;;;;;5000558;28;20443;-73
2023/08/21 02:18:37;;;;;;;;;;;23.60;99.90;;;;;;5002096;28;20124;-74
2023/08/21 02:21:03;;;;;;;0.00;0.00;;;23.60;99.90;;;;;;5002315;28;19962;-74
2023/08/21 02:23:29;;;;;;;0.00;0.00;;;23.60;99.90;;;;;;5002082;28;20030;-75
2023/08/21 02:25:55;;;;;;;0.00;0.00;;;23.60;99.90;;;;;;4987128;28;20556;-74
2023/08/21 02:28:21;;;;;;;0.10;0.10;;;23.50;99.90;;;;;;5002205;28;20101;-74
2023/08/21 02:30:46;;;;;;;;;;;23.50;99.90;;;;;;5002475;28;20385;-74
2023/08/21 02:33:12;;;;;;;0.00;0.00;;;23.50;99.90;;;;;;5002300;28;19912;-74
2023/08/21 02:35:38;;;;;;;0.10;0.10;;;23.40;99.90;;;;;;4999061;28;20030;-74
2023/08/21 02:38:04;;;;;;;0.10;0.10;;;23.40;99.90;;;;;;5003072;28;20025;-74
2023/08/21 02:40:29;;;;;;;;;;;23.40;99.90;;;;;;5013601;28;20034;-74
2023/08/21 02:42:55;;;;;;;0.00;0.00;;;23.40;99.90;;;;;;5004985;28;20258;-74
2023/08/21 02:45:21;;;;;;;;;;;23.30;99.90;;;;;;5000511;28;20710;-74
2023/08/21 02:47:46;;;;;;;0.43;0.20;;;23.40;99.90;;;;;;4999367;28;20301;-73
2023/08/21 02:50:12;;;;;;;;;;;23.30;99.90;;;;;;4984596;28;20497;-74
2023/08/21 02:52:38;;;;;;;0.00;0.00;;;23.40;99.90;;;;;;5002171;28;20288;-74
2023/08/21 02:55:04;;;;;;;;;;;23.30;99.90;;;;;;5005237;28;20452;-74
2023/08/21 02:57:30;;;;;;;0.28;0.13;;;23.30;99.90;;;;;;5002342;28;20043;-73
2023/08/21 02:59:56;;;;;;;;;;;23.30;99.90;;;;;;4984300;28;20485;-73
2023/08/21 03:02:22;;;;;;;0.15;0.15;;;23.30;99.90;;;;;;5001483;28;19909;-73
2023/08/21 03:04:48;;;;;;;0.00;0.00;;;23.30;99.90;;;;;;4991331;28;20038;-73
2023/08/21 03:07:14;;;;;;;0.10;0.10;;;23.20;99.90;;;;;;5004166;28;20105;-74
2023/08/21 03:09:40;;;;;;;;;;;23.20;99.90;;;;;;4985171;28;20030;-73
2023/08/21 03:12:07;;;;;;;0.00;0.00;;;23.20;99.90;;;;;;4987553;28;19917;-74
2023/08/21 03:14:33;;;;;;;0.00;0.00;;;23.20;99.90;;;;;;5003036;28;20493;-74
2023/08/21 03:16:58;;;;;;;0.00;0.00;;;23.30;99.90;;;;;;4989381;28;20029;-74
2023/08/21 03:19:24;;;;;;;;;;;23.30;99.90;;;;;;5007289;28;20038;-74
2023/08/21 03:21:50;;;;;;;0.05;0.05;;;23.30;99.90;;;;;;5005322;28;19913;-74
2023/08/21 03:24:15;;;;;;;;;;;23.30;99.90;;;;;;5005882;28;20109;-73
2023/08/21 03:26:41;;;;;;;0.00;0.00;;;23.30;99.90;;;;;;4991573;28;20116;-74
2023/08/21 03:29:06;;;;;;;0.20;0.10;;;23.30;99.90;;;;;;5009237;28;20457;-73
2023/08/21 03:31:32;;;;;;;;;;;23.30;99.90;;;;;;5008933;28;20045;-74
2023/08/21 03:33:59;;;;;;;0.00;0.00;;;23.30;99.90;;;;;;4987223;28;19913;-73
2023/08/21 03:36:33;;;;;;;0.00;0.00;;;23.30;99.90;;;;;;5009631;28;20096;-73
2023/08/21 03:39:00;;;;;;;0.00;0.00;;;23.30;99.90;;;;;;5009688;28;20025;-73
2023/08/21 03:41:26;;;;;;;1.10;0.10;;;23.30;99.90;;;;;;4998457;28;20032;-74
2023/08/21 03:43:51;;;;;;;0.00;0.00;;;23.20;99.90;;;;;;4989066;28;20055;-74
2023/08/21 03:46:17;;;;;;;0.00;0.00;;;23.20;99.90;;;;;;5002960;28;20096;-73
2023/08/21 03:48:43;;;;;;;;;;;23.10;99.90;;;;;;5005417;28;20091;-73
2023/08/21 03:51:08;;;;;;;0.00;0.00;;;23.20;99.90;;;;;;5004878;28;19905;-73
2023/08/21 03:53:34;;;;;;;;;;;23.10;99.90;;;;;;5005004;28;20443;-74
2023/08/21 03:56:00;;;;;;;0.00;0.00;;;23.10;99.90;;;;;;5004806;28;19917;-74
2023/08/21 03:58:26;;;;;;;;;;;23.10;99.90;;;;;;5005779;28;20076;-73
2023/08/21 04:00:52;;;;;;;0.38;0.13;;;23.10;99.90;;;;;;5004998;28;20020;-74
2023/08/21 04:03:18;;;;;;;0.20;0.20;;;23.10;99.90;;;;;;4989135;28;20032;-74
2023/08/21 04:05:44;;;;;;;0.00;0.00;;;23.10;99.90;;;;;;4988635;28;20121;-74
2023/08/21 04:08:09;;;;;;;;;;;23.10;99.90;;;;;;5004955;28;20041;-74
2023/08/21 04:10:35;;;;;;;0.10;0.10;;;23.10;99.90;;;;;;5000448;28;19964;-74
2023/08/21 04:13:01;;;;;;;0.00;0.00;;;23.10;99.90;;;;;;4989461;28;20643;-74
2023/08/21 04:15:26;;;;;;;;;;;23.20;99.90;;;;;;4987884;28;20740;-73
2023/08/21 04:17:52;;;;;;;0.00;0.00;;;23.30;99.90;;;;;;5005136;28;19909;-73
2023/08/21 04:20:21;;;;;;;0.55;0.55;;;23.30;99.90;;;;;;5004690;28;20110;-73
2023/08/21 04:22:47;;;;;;;0.00;0.00;;;23.30;99.90;;;;;;5003852;28;20026;-74
2023/08/21 04:25:13;;;;;;;0.10;0.10;;;23.30;99.90;;;;;;5018703;28;20333;-73
2023/08/21 04:27:39;;;;;;;0.00;0.00;;;23.40;99.90;;;;;;5002858;28;20040;-73
2023/08/21 04:30:05;;;;;;;0.15;0.15;;;23.50;99.90;;;;;;5007211;28;20480;-74
2023/08/21 04:32:31;;;;;;;0.10;0.10;;;23.60;99.90;;;;;;5004520;28;20504;-73
2023/08/21 04:34:57;;;;;;;0.10;0.08;;;23.70;99.90;;;;;;4986765;28;20036;-74
2023/08/21 04:37:23;;;;;;;;;;;23.80;99.90;;;;;;4986794;28;20028;-73
2023/08/21 04:39:55;;;;;;;0.28;0.28;;;23.80;99.90;;;;;;5003711;28;20371;-74
2023/08/21 04:42:21;;;;;;;0.00;0.00;;;23.80;99.90;;;;;;5003569;28;20560;-74
2023/08/21 04:44:47;;;;;;;0.00;0.00;;;23.80;99.90;;;;;;4984229;28;20033;-74
2023/08/21 04:47:21;;;;;;;;;;;23.80;99.90;;;;;;4973631;28;20404;-74
2023/08/21 04:49:51;;;;;;;0.00;0.00;;;23.80;99.90;;;;;;4986666;28;19917;-73
2023/08/21 04:52:16;;;;;;;0.10;0.10;;;23.90;99.90;;;;;;5004129;28;20523;-74
2023/08/21 04:54:42;;;;;;;;;;;23.90;99.90;;;;;;4983766;28;20040;-74
2023/08/21 04:57:08;;;;;;;0.00;0.00;;;24.00;99.90;;;;;;5006464;28;20001;-73
2023/08/21 04:59:34;;;;;;;;;;;24.00;99.90;;;;;;5003826;28;20382;-73
2023/08/21 05:02:00;;;;;;;0.22;0.20;;;24.10;99.90;;;;;;4987805;28;19913;-72
2023/08/21 05:04:25;;;;;;;;;;;24.20;99.90;;;;;;5002384;28;20558;-72
2023/08/21 05:06:51;;;;;;;0.20;0.20;;;24.10;99.90;;;;;;5002394;28;19909;-72
2023/08/21 05:09:17;;;;;;;;;;;24.10;99.90;;;;;;5002742;28;20405;-73
2023/08/21 05:11:42;;;;;;;0.00;0.00;;;24.30;99.90;;;;;;5003239;28;19925;-73
2023/08/21 05:14:08;;;;;;;;;;;24.40;99.90;;;;;;5004620;28;20113;-73
2023/08/21 05:16:33;;;;;;;0.00;0.00;;;24.50;99.90;;;;;;5004573;28;19913;-73
2023/08/21 05:18:59;;;;;;;;;;;24.40;99.90;;;;;;4985836;28;20037;-73
2023/08/21 05:21:25;;;;;;;0.00;0.00;;;24.40;99.90;;;;;;5002762;28;19912;-74
2023/08/21 05:23:51;;;;;;;;;;;24.50;99.90;;;;;;4984992;28;20545;-74
2023/08/21 05:26:16;;;;;;;0.00;0.00;;;24.50;99.90;;;;;;4983063;28;19963;-74
2023/08/21 05:28:42;;;;;;;;;;;24.50;99.90;;;;;;4997042;28;20029;-74
2023/08/21 05:31:07;;;;;;;0.10;0.10;;;24.50;99.90;;;;;;5006725;28;20345;-74
2023/08/21 05:33:33;;;;;;;;;;;24.40;99.90;;;;;;5001016;28;20829;-74
2023/08/21 05:36:00;;;;;;;1.20;1.20;;;24.40;99.90;;;;;;5002862;28;19913;-73
2023/08/21 05:38:25;;;;;;;0.35;0.35;;;24.40;99.90;;;;;;4985168;28;20041;-74
2023/08/21 05:40:51;;;;;;;0.00;0.00;;;24.50;99.90;;;;;;4982777;28;20018;-72
2023/08/21 05:43:17;;;;;;;;;;;24.70;99.90;;;;;;4988047;28;20029;-74
2023/08/21 05:45:43;;;;;;;0.20;0.20;;;24.70;99.90;;;;;;5004295;28;19905;-73
2023/08/21 05:48:09;;;;;;;;;;;24.70;99.90;;;;;;5013698;28;20029;-73
2023/08/21 05:50:36;;;;;;;0.00;0.00;;;24.80;99.90;;;;;;5002356;28;19913;-73
2023/08/21 05:53:03;;;;;;;0.00;0.00;;;24.80;99.90;;;;;;4999362;28;20353;-73
2023/08/21 05:55:29;;;;;;;0.13;0.13;;;25.10;99.90;;;;;;4983962;28;20041;-73
2023/08/21 05:57:55;;;;;;;;;;;25.20;99.90;;;;;;5002456;28;20038;-73
2023/08/21 06:00:20;;;;;;;0.03;0.00;;;25.40;99.90;;;;;;5007088;28;19905;-73
2023/08/21 06:02:46;;;;;;;0.00;0.00;;;25.80;99.90;;;;;;5001795;28;20029;-73
2023/08/21 06:05:12;;;;;;;0.00;0.00;;;26.00;99.90;;;;;;5001976;28;20034;-74
2023/08/21 06:07:40;;;;;;;;;;;26.00;99.90;;;;;;5006197;28;20120;-73
2023/08/21 06:10:06;;;;;;;;;;;25.90;99.90;;;;;;5004424;28;19960;-74
2023/08/21 06:12:31;;;;;;;0.00;0.00;;;25.80;99.90;;;;;;4983201;28;19909;-74
2023/08/21 06:14:57;;;;;;;;;;;25.70;99.90;;;;;;5002275;28;20034;-73
2023/08/21 06:17:23;;;;;;;0.00;0.00;;;25.70;99.90;;;;;;5005216;28;19988;-73
2023/08/21 06:19:48;;;;;;;0.03;0.03;;;25.60;99.90;;;;;;4984485;28;20468;-73
2023/08/21 06:22:15;;;;;;;;;;;25.70;99.90;;;;;;5000212;28;20449;-74
2023/08/21 06:24:41;;;;;;;0.20;0.20;;;25.60;99.90;;;;;;5002471;28;19910;-73
2023/08/21 06:27:07;;;;;;;0.10;0.10;;;25.60;99.90;;;;;;5002590;28;20024;-73
2023/08/21 06:29:33;;;;;;;;;;;25.80;99.90;;;;;;4984542;28;20444;-73
2023/08/21 06:31:59;;;;;;;0.00;0.00;;;26.00;99.90;;;;;;5001742;28;19909;-73
2023/08/21 06:34:25;;;;;;;0.10;0.10;;;26.30;99.90;;;;;;4987067;28;20489;-73
2023/08/21 06:36:50;;;;;;;;;;;26.50;99.90;;;;;;5002033;28;20230;-74
2023/08/21 06:39:16;;;;;;;0.05;0.05;;;26.70;99.90;;;;;;4998439;28;19905;-73
2023/08/21 06:41:42;;;;;;;0.00;0.00;;;26.80;99.90;;;;;;5004719;28;20018;-73
2023/08/21 06:44:07;;;;;;;0.00;0.00;;;27.10;99.90;;;;;;5002959;28;20029;-73
2023/08/21 06:46:34;;;;;;;0.00;0.00;;;27.30;99.90;;;;;;4983260;28;20065;-74
2023/08/21 06:48:59;;;;;;;0.22;0.20;;;27.50;99.90;;;;;;4987468;28;20014;-73
2023/08/21 06:51:25;;;;;;;0.20;0.20;;;27.60;99.90;;;;;;5006255;28;20033;-73
2023/08/21 06:53:51;;;;;;;0.00;0.00;;;27.90;99.90;;;;;;5007779;28;20101;-74
2023/08/21 06:56:17;;;;;;;0.03;0.03;;;28.50;99.90;;;;;;5007711;28;20114;-73
2023/08/21 06:58:43;;;;;;;0.20;0.20;;;29.30;99.90;;;;;;5007269;28;20028;-74
2023/08/21 07:01:08;;;;;;;0.17;0.15;;;29.90;99.90;;;;;;4986832;28;20088;-74
2023/08/21 07:03:34;;;;;;;0.10;0.10;;;31.20;99.90;;;;;;4988129;28;20026;-75
2023/08/21 07:06:00;;;;;;;0.47;0.20;;;32.30;99.20;;;;;;5008706;28;20425;-74
2023/08/21 07:08:27;;;;;;;0.47;0.43;;;33.30;97.40;;;;;;5006302;28;20034;-74
2023/08/21 07:10:53;;;;;;;0.10;0.10;;;33.10;95.90;;;;;;5008637;28;20042;-74
2023/08/21 07:13:19;;;;;;;0.45;0.22;;;32.60;95.50;;;;;;5005547;28;20053;-74
2023/08/21 07:15:46;;;;;;;0.10;0.10;;;33.60;95.10;;;;;;5015699;28;20110;-74
2023/08/21 07:18:14;;;;;;;0.03;0.03;;;34.80;93.60;;;;;;4987563;28;20484;-75
2023/08/21 07:20:39;;;;;;;0.00;0.00;;;35.30;93.10;;;;;;5004928;28;20107;-74
2023/08/21 07:23:06;;;;;;;0.55;0.28;;;35.60;91.80;;;;;;4987011;28;20045;-75
2023/08/21 07:25:31;;;;;;;0.08;0.08;;;35.80;90.20;;;;;;4987653;28;20029;-74
2023/08/21 07:27:58;;;;;;;0.30;0.30;;;35.10;90.20;;;;;;5005716;28;20996;-74
2023/08/21 07:30:24;;;;;;;0.00;0.00;;;35.10;89.70;;;;;;5004427;28;20100;-74
2023/08/21 07:32:50;;;;;;;0.20;0.20;;;35.20;89.50;;;;;;5006132;28;20572;-74
2023/08/21 07:35:15;;;;;;;0.57;0.10;;;35.40;88.20;;;;;;4987580;28;20421;-74
2023/08/21 07:37:45;;;;;;;0.10;0.10;;;35.40;87.40;;;;;;5004804;28;20069;-76
2023/08/21 07:40:11;;;;;;;0.32;0.22;;;35.60;86.30;;;;;;4990297;28;20014;-74
2023/08/21 07:42:37;;;;;;;0.10;0.10;;;36.50;85.30;;;;;;5005366;28;20526;-75
2023/08/21 07:45:03;;;;;;;0.15;0.15;;;36.80;84.40;;;;;;5004144;28;20032;-74
2023/08/21 07:47:30;;;;;;;0.08;0.08;;;38.50;81.50;;;;;;5006422;28;20025;-75
2023/08/21 07:49:57;;;;;;;0.00;0.00;;;38.20;78.90;;;;;;5005837;28;20501;-75
2023/08/21 07:52:23;;;;;;;0.10;0.10;;;38.80;77.80;;;;;;5004743;28;20041;-74
2023/08/21 07:54:55;;;;;;;0.10;0.10;;;40.00;74.70;;;;;;4988819;28;20037;-75
2023/08/21 07:57:20;;;;;;;0.30;0.30;;;40.70;74.40;;;;;;5004743;28;20100;-74
2023/08/21 07:59:46;;;;;;;0.57;0.57;;;39.00;72.20;;;;;;5004160;28;20453;-74
2023/08/21 08:02:12;;;;;;;0.28;0.28;;;38.90;72.60;;;;;;5006610;28;20018;-74
2023/08/21 08:04:38;;;;;;;0.15;0.15;;;38.10;73.50;;;;;;4988024;28;20026;-74
2023/08/21 08:07:04;;;;;;;0.10;0.10;;;38.50;72.00;;;;;;5004277;28;20440;-75
2023/08/21 08:09:30;;;;;;;0.00;0.00;;;37.90;72.10;;;;;;4988274;28;20025;-75
2023/08/21 08:11:56;;;;;;;0.10;0.05;;;39.20;72.50;;;;;;4989657;28;20061;-75
2023/08/21 08:14:22;;;;;;;0.10;0.10;;;40.90;70.10;;;;;;5003499;28;20845;-75
2023/08/21 08:16:47;;;;;;;0.05;0.05;;;42.50;67.70;;;;;;5004347;28;20745;-75
2023/08/21 08:19:13;;;;;;;0.32;0.32;;;42.00;66.20;;;;;;4985044;28;20121;-75
2023/08/21 08:21:39;;;;;;;0.52;0.43;;;40.60;66.50;;;;;;5004835;28;20018;-74
2023/08/21 08:24:05;;;;;;;0.30;0.30;;;39.50;68.40;;;;;;4986133;28;20068;-74
2023/08/21 08:26:30;;;;;;;0.32;0.32;;;39.30;68.20;;;;;;4987764;28;20569;-74
2023/08/21 08:28:56;;;;;;;0.57;0.57;;;39.90;67.70;;;;;;5004947;28;20097;-75
2023/08/21 08:31:23;;;;;;;0.50;0.50;;;39.50;67.10;;;;;;4986687;28;20032;-74
2023/08/21 08:33:49;;;;;;;0.50;0.50;;;40.90;66.60;;;;;;5001204;28;20022;-75
2023/08/21 08:36:15;;;;;;;0.30;0.30;;;41.70;64.30;;;;;;5003835;28;20025;-75
2023/08/21 08:38:40;;;;;;;0.63;0.25;;;39.90;65.20;;;;;;5003626;28;20088;-75
2023/08/21 08:41:50;;;;;;;0.00;0.00;;;39.60;66.60;;;;;;4986287;28;20956;-75
2023/08/21 08:44:17;;;;;;;0.00;0.00;;;41.30;64.90;;;;;;4967811;28;20022;-74
2023/08/21 08:46:43;;;;;;;0.25;0.25;;;42.00;64.50;;;;;;5007639;28;20623;-74
2023/08/21 08:49:09;;;;;;;0.05;0.05;;;43.60;64.00;;;;;;4988448;28;20572;-74
2023/08/21 08:51:37;;;;;;;0.10;0.10;;;45.30;60.70;;;;;;5001449;28;20137;-76
2023/08/21 08:54:03;;;;;;;0.20;0.20;;;44.90;58.50;;;;;;5004057;28;20010;-74
2023/08/21 08:56:29;;;;;;;0.00;0.00;;;43.00;60.60;;;;;;4987403;28;20497;-75
2023/08/21 08:58:55;;;;;;;0.20;0.20;;;42.70;60.00;;;;;;4999823;28;20026;-75
2023/08/21 09:01:21;;;;;;;0.17;0.13;;;42.70;60.50;;;;;;5005362;28;20029;-74
2023/08/21 09:03:46;;;;;;;0.10;0.10;;;41.20;61.20;;;;;;5005347;28;20026;-75
2023/08/21 09:06:12;;;;;;;0.00;0.00;;;42.70;61.00;;;;;;5003251;28;20076;-75
2023/08/21 09:08:38;;;;;;;0.20;0.20;;;42.80;59.70;;;;;;5003423;28;20061;-75
2023/08/21 09:11:03;;;;;;;0.00;0.00;;;43.40;59.50;;;;;;5003941;28;20061;-74
2023/08/21 09:13:31;;;;;;;0.10;0.05;;;41.80;59.90;;;;;;4991977;28;20092;-75
2023/08/21 09:15:58;;;;;;;0.65;0.65;;;42.70;60.00;;;;;;4986637;28;20053;-76
2023/08/21 09:18:24;;;;;;;0.30;0.30;;;43.40;58.60;;;;;;4983479;28;20068;-75
2023/08/21 09:20:49;;;;;;;0.10;0.10;;;42.40;59.70;;;;;;5003027;28;20026;-75
2023/08/21 09:23:17;;;;;;;0.20;0.20;;;41.20;59.50;;;;;;5005886;28;20053;-75
2023/08/21 09:25:47;;;;;;;0.55;0.38;;;40.30;60.50;;;;;;5002840;28;20408;-74
2023/08/21 09:28:13;;;;;;;0.15;0.15;;;41.30;61.00;;;;;;4999843;28;20050;-75
2023/08/21 09:30:49;;;;;;;0.38;0.08;;;42.50;59.00;;;;;;5003586;28;20022;-74
2023/08/21 09:33:17;;;;;;;0.15;0.15;;;40.70;60.40;;;;;;5006311;28;20638;-75
2023/08/21 09:35:43;;;;;;;0.00;0.00;;;40.80;60.60;;;;;;5004154;28;20022;-74
2023/08/21 09:38:10;;;;;;;0.32;0.32;;;41.30;60.10;;;;;;4983621;28;20030;-74
2023/08/21 09:40:46;;;;;;;0.30;0.30;;;40.00;59.60;;;;;;4984782;28;20524;-74
2023/08/21 09:43:12;;;;;;;0.32;0.20;;;38.80;60.80;;;;;;4998089;28;20022;-74
2023/08/21 09:45:38;;;;;;;0.00;0.00;;;38.00;62.90;;;;;;5010501;28;20045;-74
2023/08/21 09:48:05;;;;;;;0.10;0.10;;;38.10;62.50;;;;;;5003579;28;20555;-75
2023/08/21 09:50:31;;;;;;;0.35;0.30;;;39.40;61.70;;;;;;5005466;28;20053;-75
2023/08/21 09:52:58;;;;;;;0.40;0.40;;;40.30;60.20;;;;;;4986609;28;20322;-75
2023/08/21 09:55:26;;;;;;;0.22;0.22;;;40.80;59.80;;;;;;5005529;28;20041;-74
2023/08/21 09:57:58;;;;;;;0.05;0.05;;;41.10;59.30;;;;;;4999707;28;20323;-75
2023/08/21 10:00:31;;;;;;;0.00;0.00;;;42.70;58.60;;;;;;5002945;28;20045;-75
2023/08/21 10:03:03;;;;;;;0.20;0.20;;;43.80;57.70;;;;;;4999554;28;20022;-75
2023/08/21 10:05:33;;;;;;;0.05;0.05;;;45.00;57.70;;;;;;5004283;28;20030;-74
2023/08/21 10:08:04;;;;;;;0.10;0.10;;;45.40;55.50;;;;;;5001366;28;20049;-74
2023/08/21 10:10:33;;;;;;;0.03;0.03;;;45.10;55.70;;;;;;5001306;28;20065;-74
2023/08/21 10:13:00;;;;;;;0.00;0.00;;;45.10;55.30;;;;;;5003445;28;20029;-74
2023/08/21 10:15:29;;;;;;;0.22;0.22;;;45.40;55.40;;;;;;4983339;28;20065;-75
2023/08/21 10:17:56;;;;;;;0.10;0.10;;;44.20;54.70;;;;;;5001507;28;20464;-75
2023/08/21 10:20:24;;;;;;;0.82;0.22;;;43.60;55.90;;;;;;4985464;28;20109;-75
2023/08/21 10:22:54;;;;;;;0.38;0.20;;;44.20;54.80;;;;;;5001528;28;20485;-74
2023/08/21 10:25:22;;;;;;;0.00;0.00;;;42.90;56.00;;;;;;5002605;28;20022;-75
2023/08/21 10:28:03;;;;;;;0.13;0.13;;;44.10;56.60;;;;;;5004289;28;20068;-74
2023/08/21 10:30:29;;;;;;;0.10;0.10;;;44.30;55.20;;;;;;5000695;28;20060;-76
2023/08/21 10:32:58;;;;;;;0.08;0.08;;;45.60;54.20;;;;;;5001180;28;20412;-75
2023/08/21 10:35:28;;;;;;;0.10;0.10;;;45.70;53.00;;;;;;5002265;28;20484;-75
2023/08/21 10:38:17;;;;;;;0.17;0.15;;;45.70;53.20;;;;;;5002152;28;20480;-74
2023/08/21 10:41:08;;;;;;;0.00;0.00;;;46.60;52.80;;;;;;5002449;28;20018;-75
2023/08/21 10:43:45;;;;;;;0.20;0.20;;;44.20;53.10;;;;;;5002243;28;20101;-75
2023/08/21 10:46:11;;;;;;;0.00;0.00;;;42.60;54.10;;;;;;4987268;28;20088;-74
2023/08/21 10:48:38;;;;;;;0.17;0.13;;;43.00;54.50;;;;;;5001511;28;20029;-75
2023/08/21 10:51:07;;;;;;;0.10;0.10;;;43.70;54.60;;;;;;5000427;28;20756;-74
2023/08/21 10:53:33;;;;;;;0.20;0.20;;;45.60;52.90;;;;;;5003748;28;20535;-74
2023/08/21 10:56:04;;;;;;;0.10;0.10;;;46.20;52.10;;;;;;5001203;28;20026;-74
2023/08/21 10:58:42;;;;;;;0.00;0.00;;;46.80;51.60;;;;;;5000052;28;20026;-73
2023/08/21 11:01:08;;;;;;;0.00;0.00;;;47.50;50.50;;;;;;4999954;28;20030;-74
2023/08/21 11:03:34;;;;;;;0.17;0.17;;;47.00;50.00;;;;;;5000496;28;20387;-74
2023/08/21 11:06:04;;;;;;;0.22;0.22;;;44.90;50.90;;;;;;4985607;28;20441;-74
2023/08/21 11:08:31;;;;;;;0.08;0.08;;;42.80;52.80;;;;;;5000162;28;20026;-73
2023/08/21 11:10:56;;;;;;;0.15;0.15;;;40.70;54.50;;;;;;5002055;28;20033;-73
2023/08/21 11:13:26;;;;;;;0.10;0.10;;;38.70;55.30;;;;;;5002414;28;20464;-73
2023/08/21 11:16:11;;;;;;;0.00;0.00;;;38.10;57.80;;;;;;4987155;28;20053;-73
2023/08/21 11:18:38;;;;;;;0.57;0.28;;;37.20;57.30;;;;;;4987147;28;20033;-73
2023/08/21 11:21:09;;;;;;;0.10;0.10;;;37.00;58.20;;;;;;5001181;28;20092;-73
2023/08/21 11:23:36;;;;;;;0.00;0.00;;;37.30;58.00;;;;;;5002230;28;20548;-73
2023/08/21 11:26:03;;;;;;;1.67;0.47;;;37.60;57.80;;;;;;4983622;28;20026;-73
2023/08/21 11:28:30;;;;;;;0.05;0.05;;;37.40;58.00;;;;;;4984886;28;20028;-73
2023/08/21 11:30:56;;;;;;;0.43;0.43;;;36.40;58.80;;;;;;5005593;28;20072;-72
2023/08/21 11:33:23;;;;;;;0.20;0.20;;;36.20;60.20;;;;;;5002660;28;20462;-74
2023/08/21 11:35:49;;;;;;;0.00;0.00;;;35.90;60.70;;;;;;4985800;28;20018;-73
2023/08/21 11:38:20;;;;;;;0.20;0.05;;;35.90;60.30;;;;;;5005564;28;20075;-73
2023/08/21 11:40:57;;;;;;;0.47;0.30;;;36.10;60.80;;;;;;5002195;28;20056;-73
2023/08/21 11:43:37;;;;;;;0.55;0.55;;;36.00;59.90;;;;;;5005984;28;20496;-73
2023/08/21 11:46:07;;;;;;;0.13;0.13;;;35.40;60.30;;;;;;5006066;28;20026;-74
2023/08/21 11:48:35;;;;;;;0.90;0.17;;;35.70;60.90;;;;;;5009473;28;20414;-74
2023/08/21 11:51:01;;;;;;;0.10;0.10;;;35.80;61.00;;;;;;5007701;28;20567;-74
2023/08/21 11:53:41;;;;;;;0.00;0.00;;;36.00;60.80;;;;;;4988397;28;20025;-73
2023/08/21 11:56:15;;;;;;;0.10;0.10;;;36.10;60.50;;;;;;4989427;28;20350;-72
2023/08/21 11:58:42;;;;;;;0.20;0.20;;;35.70;60.80;;;;;;4990914;28;20030;-73
2023/08/21 12:01:09;;;;;;;0.00;0.00;;;35.80;60.00;;;;;;4988427;28;20025;-73
2023/08/21 12:03:39;;;;;;;0.00;0.00;;;36.00;59.00;;;;;;5002005;28;20485;-73
2023/08/21 12:06:09;;;;;;;1.13;0.38;;;36.10;59.00;;;;;;4985810;28;20513;-74
2023/08/21 12:08:35;;;;;;;0.20;0.20;;;36.10;58.20;;;;;;4985865;28;20153;-73
2023/08/21 12:11:02;;;;;;;0.10;0.10;;;36.00;58.30;;;;;;5002405;28;20488;-72
2023/08/21 12:13:28;;;;;;;0.10;0.10;;;35.40;59.90;;;;;;5005157;28;20366;-74
2023/08/21 12:15:54;;;;;;;0.40;0.38;;;35.40;62.20;;;;;;5008051;28;20025;-73
2023/08/21 12:18:19;;;;;;;0.17;0.17;;;35.50;60.40;;;;;;5001847;28;20029;-72
2023/08/21 12:20:45;;;;;;;0.38;0.38;;;35.20;60.20;;;;;;5008445;28;20044;-74
2023/08/21 12:23:11;;;;;;;0.25;0.22;;;35.20;61.20;;;;;;5005482;28;20032;-73
2023/08/21 12:25:36;;;;;;;0.00;0.00;;;35.40;60.00;;;;;;5005215;28;20083;-73
2023/08/21 12:28:02;;;;;;;0.10;0.10;;;35.80;59.60;;;;;;5005404;28;20040;-73
2023/08/21 12:30:28;;;;;;;0.20;0.20;;;36.00;58.40;;;;;;5007831;28;20507;-73
2023/08/21 12:32:53;;;;;;;0.25;0.10;;;35.80;58.00;;;;;;5001269;28;21922;-73
2023/08/21 12:35:19;;;;;;;0.20;0.20;;;35.60;58.20;;;;;;5004465;28;20028;-73
2023/08/21 12:37:45;;;;;;;0.20;0.20;;;35.70;59.30;;;;;;5001262;28;20034;-74
2023/08/21 12:40:10;;;;;;;1.10;0.10;;;35.70;59.00;;;;;;5004523;28;20053;-73
2023/08/21 12:42:36;;;;;;;0.00;0.00;;;35.50;59.00;;;;;;4987300;28;20040;-73
2023/08/21 12:45:02;;;;;;;0.00;0.00;;;35.40;59.50;;;;;;4984065;28;20666;-73
2023/08/21 12:47:28;;;;;;;0.10;0.10;;;35.40;59.00;;;;;;4986171;28;20113;-73
2023/08/21 12:49:53;;;;;;;0.35;0.35;;;35.30;58.80;;;;;;5004715;28;20093;-72
2023/08/21 12:52:19;;;;;;;0.20;0.20;;;35.40;59.50;;;;;;5004475;28;20030;-73
2023/08/21 12:54:45;;;;;;;0.13;0.13;;;35.60;58.10;;;;;;5007610;28;20029;-73
2023/08/21 12:57:11;;;;;;;0.30;0.20;;;35.90;58.60;;;;;;5004741;28;20088;-73
2023/08/21 12:59:37;;;;;;;0.08;0.08;;;35.90;58.00;;;;;;5007606;28;20026;-74